Time;durP1;ratioP1;P1;durP2;ratioP2;P2;SDS_P1;SDS_P2;PMS_P1;PMS_P2;Temp;Humidity;BMP_temperature;BMP_pressure;BME280_temperature;BME280_humidity;BME280_pressure;Samples;Min_cycle;Max_cycle;Signal;HPM_P1;HPM_P2
2024/01/19 00:01:28;;;;;;;;;;;0.60;88.50;;;;;;4956256;28;19934;-60
2024/01/19 00:04:01;;;;;;;;;;;0.60;88.60;;;;;;4959398;28;19938;-61
2024/01/19 00:06:34;;;;;;;;;;;0.60;88.70;;;;;;4960227;28;19935;-61
2024/01/19 00:09:08;;;;;;;;;;;0.70;88.60;;;;;;4957146;28;19927;-61
2024/01/19 00:11:43;;;;;;;;;;;0.70;88.60;;;;;;4957522;28;20013;-60
2024/01/19 00:14:16;;;;;;;;;;;0.70;88.60;;;;;;4957891;28;19931;-59
2024/01/19 00:16:49;;;;;;;;;;;0.70;88.70;;;;;;4958145;28;19926;-61
2024/01/19 00:19:22;;;;;;;;;;;0.70;88.60;;;;;;4957549;28;19930;-73
2024/01/19 00:21:55;;;;;;;;;;;0.70;88.70;;;;;;4959377;28;19926;-74
2024/01/19 00:24:28;;;;;;;;;;;0.70;88.60;;;;;;4958882;28;19926;-74
2024/01/19 00:27:03;;;;;;;;;;;0.70;88.70;;;;;;4958933;28;20284;-74
2024/01/19 00:29:36;;;;;;;;;;;0.70;88.60;;;;;;4961021;28;19965;-73
2024/01/19 00:32:09;;;;;;;;;;;0.70;88.60;;;;;;4957978;28;20057;-75
2024/01/19 00:34:42;;;;;;;;;;;0.70;88.50;;;;;;4961231;28;19926;-74
2024/01/19 00:37:15;;;;;;;;;;;0.70;88.50;;;;;;4961212;28;19934;-75
2024/01/19 00:39:48;;;;;;;;;;;0.70;88.40;;;;;;4961320;28;19927;-74
2024/01/19 00:42:23;;;;;;;;;;;0.70;88.50;;;;;;4961355;28;19980;-74
2024/01/19 00:44:57;;;;;;;;;;;0.70;88.50;;;;;;4959967;28;20028;-74
2024/01/19 00:47:30;;;;;;;;;;;0.60;88.60;;;;;;4961052;28;19926;-75
2024/01/19 00:50:04;;;;;;;;;;;0.70;88.70;;;;;;4962939;28;19926;-70
2024/01/19 00:52:37;;;;;;;;;;;0.70;88.80;;;;;;4961737;28;19926;-73
2024/01/19 00:55:04;;;;;;;;;;;0.60;88.70;;;;;;4963644;28;20372;-73
2024/01/19 00:57:39;;;;;;;;;;;0.70;88.80;;;;;;4963228;28;19930;-74
2024/01/19 01:00:12;;;;;;;;;;;0.60;88.70;;;;;;4960921;28;20408;-75
2024/01/19 01:02:45;;;;;;;;;;;0.60;88.60;;;;;;4962721;28;19996;-74
2024/01/19 01:05:18;;;;;;;;;;;0.70;88.70;;;;;;4961794;28;19926;-74
2024/01/19 01:07:51;;;;;;;;;;;0.70;88.70;;;;;;4962778;28;19930;-75
2024/01/19 01:10:24;;;;;;;;;;;0.70;88.70;;;;;;4961555;28;19927;-71
2024/01/19 01:13:01;;;;;;;;;;;0.60;88.60;;;;;;4961107;28;19933;-73
2024/01/19 01:15:34;;;;;;;;;;;0.70;88.70;;;;;;4959137;28;19930;-75
2024/01/19 01:18:07;;;;;;;;;;;0.60;88.70;;;;;;4961763;28;19952;-71
2024/01/19 01:20:40;;;;;;;;;;;0.70;88.70;;;;;;4963066;28;20323;-74
2024/01/19 01:23:13;;;;;;;;;;;0.70;88.80;;;;;;4961707;28;19934;-74
2024/01/19 01:25:46;;;;;;;;;;;0.70;88.60;;;;;;4963170;28;19936;-74
2024/01/19 01:28:21;;;;;;;;;;;0.60;88.60;;;;;;4962186;28;19934;-62
2024/01/19 01:30:54;;;;;;;;;;;0.70;88.70;;;;;;4960784;28;20303;-62
2024/01/19 01:33:21;;;;;;;;;;;0.60;88.50;;;;;;4956219;28;19934;-61
2024/01/19 01:35:54;;;;;;;;;;;0.60;88.60;;;;;;4962221;28;19938;-60
2024/01/19 01:38:27;;;;;;;;;;;0.70;88.50;;;;;;4961209;28;19937;-59
2024/01/19 01:41:00;;;;;;;;;;;0.70;88.40;;;;;;4961007;28;19961;-64
2024/01/19 01:43:35;;;;;;;;;;;0.70;88.60;;;;;;4961882;28;19930;-61
2024/01/19 01:46:08;;;;;;;;;;;0.70;88.50;;;;;;4958778;28;19997;-61
2024/01/19 01:48:41;;;;;;;;;;;0.60;88.30;;;;;;4962236;28;20274;-60
2024/01/19 01:51:14;;;;;;;;;;;0.60;88.30;;;;;;4961532;28;20395;-61
2024/01/19 01:53:47;;;;;;;;;;;0.70;88.30;;;;;;4965290;28;19930;-63
2024/01/19 01:56:20;;;;;;;;;;;0.70;88.20;;;;;;4960345;28;20053;-63
2024/01/19 01:58:55;;;;;;;;;;;0.70;88.20;;;;;;4957038;28;19930;-62
2024/01/19 02:01:29;;;;;;;;;;;0.70;88.20;;;;;;4962369;28;19996;-61
2024/01/19 02:04:02;;;;;;;;;;;0.70;88.30;;;;;;4961131;28;20033;-62
2024/01/19 02:06:35;;;;;;;;;;;0.70;88.30;;;;;;4961776;28;19972;-61
2024/01/19 02:09:09;;;;;;;;;;;0.70;88.20;;;;;;4961549;28;19927;-61
2024/01/19 02:11:43;;;;;;;;;;;0.70;88.30;;;;;;4961669;28;19926;-62
2024/01/19 02:14:18;;;;;;;;;;;0.70;88.20;;;;;;4960670;28;19934;-62
2024/01/19 02:16:51;;;;;;;;;;;0.60;88.30;;;;;;4960465;28;20009;-62
2024/01/19 02:19:18;;;;;;;;;;;0.70;88.30;;;;;;4960989;28;19927;-60
2024/01/19 02:21:51;;;;;;;;;;;0.70;88.30;;;;;;4962968;28;19937;-61
2024/01/19 02:24:26;;;;;;;;;;;0.70;88.30;;;;;;4960011;28;19992;-61
2024/01/19 02:27:00;;;;;;;;;;;0.70;88.30;;;;;;4961194;28;19934;-62
2024/01/19 02:29:33;;;;;;;;;;;0.70;88.30;;;;;;4960445;28;19926;-63
2024/01/19 02:32:00;;;;;;;;;;;0.70;88.40;;;;;;4958913;28;19930;-64
2024/01/19 02:34:33;;;;;;;;;;;0.60;88.40;;;;;;4960078;28;20396;-61
2024/01/19 02:37:00;;;;;;;;;;;0.70;88.40;;;;;;4962057;28;19945;-63
2024/01/19 02:39:35;;;;;;;;;;;0.70;88.50;;;;;;4961287;28;19969;-61
2024/01/19 02:42:08;;;;;;;;;;;0.70;88.50;;;;;;4960206;28;20278;-61
2024/01/19 02:44:42;;;;;;;;;;;0.70;88.50;;;;;;4960902;28;19933;-59
2024/01/19 02:47:15;;;;;;;;;;;0.70;88.40;;;;;;4958466;28;19926;-61
2024/01/19 02:49:48;;;;;;;;;;;0.70;88.50;;;;;;4961288;28;20068;-60
2024/01/19 02:52:21;;;;;;;;;;;0.70;88.40;;;;;;4960305;28;19935;-62
2024/01/19 02:54:56;;;;;;;;;;;0.70;88.50;;;;;;4964181;28;19930;-61
2024/01/19 02:57:29;;;;;;;;;;;0.70;88.50;;;;;;4959727;28;19933;-62
2024/01/19 02:59:56;;;;;;;;;;;0.60;88.60;;;;;;4953178;28;19930;-61
2024/01/19 03:02:29;;;;;;;;;;;0.60;88.30;;;;;;4944723;28;19954;-61
2024/01/19 03:05:02;;;;;;;;;;;0.60;88.20;;;;;;4961677;28;20260;-60
2024/01/19 03:07:35;;;;;;;;;;;0.60;87.40;;;;;;4960909;28;19960;-60
2024/01/19 03:10:10;;;;;;;;;;;0.70;87.80;;;;;;4958955;28;19938;-62
2024/01/19 03:12:37;;;;;;;;;;;0.70;87.70;;;;;;4962440;28;19926;-60
2024/01/19 03:15:11;;;;;;;;;;;0.70;87.40;;;;;;4959175;28;20024;-60
2024/01/19 03:17:43;;;;;;;;;;;0.70;87.60;;;;;;4955559;28;19941;-62
2024/01/19 03:20:23;;;;;;;;;;;0.70;87.60;;;;;;4957670;28;20318;-60
2024/01/19 03:22:56;;;;;;;;;;;0.70;87.80;;;;;;4963502;28;19937;-62
2024/01/19 03:25:31;;;;;;;;;;;0.70;87.80;;;;;;4960469;28;19937;-61
2024/01/19 03:28:04;;;;;;;;;;;0.60;87.90;;;;;;4960634;28;19930;-62
2024/01/19 03:30:37;;;;;;;;;;;0.60;88.00;;;;;;4958344;28;20009;-62
2024/01/19 03:33:10;;;;;;;;;;;0.70;88.10;;;;;;4959107;28;19937;-61
2024/01/19 03:35:43;;;;;;;;;;;0.70;88.10;;;;;;4958660;28;19934;-60
2024/01/19 03:38:18;;;;;;;;;;;0.70;88.10;;;;;;4959937;28;19933;-60
2024/01/19 03:40:53;;;;;;;;;;;0.70;88.10;;;;;;4959067;28;19973;-60
2024/01/19 03:43:26;;;;;;;;;;;0.70;88.10;;;;;;4943823;28;19954;-62
2024/01/19 03:45:53;;;;;;;;;;;0.60;87.90;;;;;;4958597;28;19930;-61
2024/01/19 03:48:26;;;;;;;;;;;0.60;88.00;;;;;;4960293;28;20025;-60
2024/01/19 03:50:59;;;;;;;;;;;0.70;88.00;;;;;;4959564;28;20030;-60
2024/01/19 03:53:32;;;;;;;;;;;0.70;87.90;;;;;;4962294;28;19934;-59
2024/01/19 03:56:09;;;;;;;;;;;0.60;87.70;;;;;;4961833;28;19934;-61
2024/01/19 03:58:42;;;;;;;;;;;0.60;87.70;;;;;;4960473;28;19973;-60
2024/01/19 04:01:15;;;;;;;;;;;0.60;87.60;;;;;;4958140;28;19930;-60
2024/01/19 04:03:48;;;;;;;;;;;0.60;87.60;;;;;;4960794;28;19980;-60
2024/01/19 04:06:21;;;;;;;;;;;0.60;87.60;;;;;;4958852;28;19930;-60
2024/01/19 04:08:54;;;;;;;;;;;0.60;87.60;;;;;;4958022;28;20019;-60
2024/01/19 04:11:22;;;;;;;;;;;0.60;87.50;;;;;;4957544;28;19934;-62
2024/01/19 04:13:55;;;;;;;;;;;0.60;87.40;;;;;;4960642;28;19956;-60
2024/01/19 04:16:28;;;;;;;;;;;0.60;87.40;;;;;;4960932;28;19926;-60
2024/01/19 04:19:02;;;;;;;;;;;0.50;87.30;;;;;;4960662;28;19935;-60
2024/01/19 04:21:34;;;;;;;;;;;0.50;87.30;;;;;;4960112;28;19933;-60
2024/01/19 04:24:07;;;;;;;;;;;0.50;87.20;;;;;;4960423;28;20388;-61
2024/01/19 04:26:42;;;;;;;;;;;0.50;87.30;;;;;;4959220;28;20395;-60
2024/01/19 04:29:09;;;;;;;;;;;0.40;87.30;;;;;;4955905;28;20292;-62
2024/01/19 04:31:42;;;;;;;;;;;0.50;87.20;;;;;;4956845;28;20658;-60
2024/01/19 04:34:15;;;;;;;;;;;0.50;86.90;;;;;;4959291;28;20001;-61
2024/01/19 04:36:48;;;;;;;;;;;0.40;86.90;;;;;;4960689;28;19975;-61
2024/01/19 04:39:21;;;;;;;;;;;0.40;86.80;;;;;;4956555;28;19927;-60
2024/01/19 04:41:55;;;;;;;;;;;0.40;86.70;;;;;;4958827;28;19942;-60
2024/01/19 04:44:28;;;;;;;;;;;0.40;86.60;;;;;;4958328;28;19926;-61
2024/01/19 04:47:01;;;;;;;;;;;0.40;86.60;;;;;;4960530;28;19927;-61
2024/01/19 04:49:28;;;;;;;;;;;0.40;86.60;;;;;;4959127;28;19953;-61
2024/01/19 04:52:01;;;;;;;;;;;0.40;86.70;;;;;;4958938;28;20009;-61
2024/01/19 04:54:34;;;;;;;;;;;0.40;86.60;;;;;;4958957;28;20006;-61
2024/01/19 04:57:09;;;;;;;;;;;0.40;86.90;;;;;;4941188;28;19933;-60
2024/01/19 04:59:42;;;;;;;;;;;0.40;86.90;;;;;;4959229;28;19927;-59
2024/01/19 05:02:15;;;;;;;;;;;0.40;86.90;;;;;;4955992;28;20030;-60
2024/01/19 05:04:48;;;;;;;;;;;0.40;86.90;;;;;;4959275;28;19926;-58
2024/01/19 05:07:22;;;;;;;;;;;0.40;86.80;;;;;;4958280;28;19932;-59
2024/01/19 05:09:54;;;;;;;;;;;0.30;86.90;;;;;;4957620;28;20377;-60
2024/01/19 05:12:29;;;;;;;;;;;0.30;86.80;;;;;;4947639;28;19976;-60
2024/01/19 05:15:03;;;;;;;;;;;0.30;86.80;;;;;;4958662;28;19930;-60
2024/01/19 05:17:35;;;;;;;;;;;0.30;86.90;;;;;;4957467;28;19937;-58
2024/01/19 05:20:09;;;;;;;;;;;0.30;86.90;;;;;;4959186;28;20021;-59
2024/01/19 05:22:42;;;;;;;;;;;0.30;86.90;;;;;;4962570;28;20066;-60
2024/01/19 05:25:18;;;;;;;;;;;0.30;87.00;;;;;;4960987;28;19937;-59
2024/01/19 05:27:53;;;;;;;;;;;0.30;86.90;;;;;;4944125;28;19930;-59
2024/01/19 05:30:26;;;;;;;;;;;0.20;87.00;;;;;;4963127;28;20423;-59
2024/01/19 05:32:59;;;;;;;;;;;0.20;87.00;;;;;;4960482;28;20045;-56
2024/01/19 05:35:32;;;;;;;;;;;0.20;87.00;;;;;;4961074;28;20045;-61
2024/01/19 05:38:05;;;;;;;;;;;0.20;87.00;;;;;;4960963;28;19930;-60
2024/01/19 05:40:38;;;;;;;;;;;0.20;87.10;;;;;;4961077;28;20440;-58
2024/01/19 05:43:13;;;;;;;;;;;0.10;87.20;;;;;;4961832;28;20836;-60
2024/01/19 05:45:46;;;;;;;;;;;0.10;87.20;;;;;;4960654;28;20037;-59
2024/01/19 05:48:19;;;;;;;;;;;0.20;87.20;;;;;;4960955;28;19936;-60
2024/01/19 05:50:52;;;;;;;;;;;0.20;87.10;;;;;;4961565;28;19937;-59
2024/01/19 05:53:25;;;;;;;;;;;0.20;87.00;;;;;;4959776;28;20436;-59
2024/01/19 05:56:00;;;;;;;;;;;0.20;87.00;;;;;;4960718;28;20348;-59
2024/01/19 05:58:35;;;;;;;;;;;0.20;87.00;;;;;;4961454;28;19979;-58
2024/01/19 06:01:08;;;;;;;;;;;0.20;87.00;;;;;;4959806;28;19927;-59
2024/01/19 06:03:42;;;;;;;;;;;0.20;87.00;;;;;;4960240;28;19930;-60
2024/01/19 06:06:15;;;;;;;;;;;0.20;87.10;;;;;;4959656;28;19933;-60
2024/01/19 06:08:47;;;;;;;;;;;0.20;86.90;;;;;;4965491;28;20011;-62
2024/01/19 06:11:20;;;;;;;;;;;0.30;86.80;;;;;;4960194;28;19935;-64
2024/01/19 06:13:55;;;;;;;;;;;0.20;86.80;;;;;;4961318;28;19932;-63
2024/01/19 06:16:28;;;;;;;;;;;0.20;86.90;;;;;;4962581;28;19926;-63
2024/01/19 06:19:01;;;;;;;;;;;0.10;86.80;;;;;;4960573;28;19926;-62
2024/01/19 06:21:34;;;;;;;;;;;0.20;86.70;;;;;;4960994;28;19941;-62
2024/01/19 06:24:07;;;;;;;;;;;0.20;86.60;;;;;;4962117;28;19926;-65
2024/01/19 06:26:43;;;;;;;;;;;0.20;86.50;;;;;;4962916;28;19933;-62
2024/01/19 06:29:17;;;;;;;;;;;0.20;86.60;;;;;;4942870;28;19962;-63
2024/01/19 06:31:50;;;;;;;;;;;0.20;86.60;;;;;;4959651;28;19926;-61
2024/01/19 06:34:23;;;;;;;;;;;0.10;86.70;;;;;;4961852;28;19934;-62
2024/01/19 06:36:56;;;;;;;;;;;0.10;86.70;;;;;;4961637;28;19936;-63
2024/01/19 06:39:29;;;;;;;;;;;0.10;86.70;;;;;;4958773;28;20442;-64
2024/01/19 06:42:04;;;;;;;;;;;0.10;86.80;;;;;;4961823;28;20300;-63
2024/01/19 06:44:41;;;;;;;;;;;0.10;86.80;;;;;;4962435;28;20394;-62
2024/01/19 06:47:17;;;;;;;;;;;0.10;86.60;;;;;;4956227;28;19953;-63
2024/01/19 06:49:50;;;;;;;;;;;0.10;86.60;;;;;;4964642;28;19930;-64
2024/01/19 06:52:24;;;;;;;;;;;0.00;86.60;;;;;;4962011;28;19961;-63
2024/01/19 06:54:56;;;;;;;;;;;0.00;86.60;;;;;;4962022;28;19930;-63
2024/01/19 06:57:29;;;;;;;;;;;0.00;86.60;;;;;;4962632;28;19926;-62
2024/01/19 07:00:05;;;;;;;;;;;0.00;86.70;;;;;;4961340;28;19969;-62
2024/01/19 07:02:37;;;;;;;;;;;0.00;86.70;;;;;;4964024;28;19930;-64
2024/01/19 07:05:11;;;;;;;;;;;0.10;86.60;;;;;;4963119;28;19926;-63
2024/01/19 07:07:44;;;;;;;;;;;0.10;86.50;;;;;;4962507;28;19945;-63
2024/01/19 07:10:18;;;;;;;;;;;0.00;86.60;;;;;;4961330;28;20025;-63
2024/01/19 07:12:52;;;;;;;;;;;0.00;86.60;;;;;;4960740;28;19937;-63
2024/01/19 07:15:34;;;;;;;;;;;0.10;86.60;;;;;;4961420;28;19926;-63
2024/01/19 07:18:07;;;;;;;;;;;0.10;86.50;;;;;;4962573;28;19966;-62
2024/01/19 07:20:39;;;;;;;;;;;0.00;86.40;;;;;;4961232;28;19931;-60
2024/01/19 07:23:13;;;;;;;;;;;0.00;86.40;;;;;;4960866;28;20296;-60
2024/01/19 07:25:45;;;;;;;;;;;0.00;86.40;;;;;;4955854;28;19931;-62
2024/01/19 07:28:18;;;;;;;;;;;0.00;86.40;;;;;;4961404;28;19938;-61
2024/01/19 07:30:47;;;;;;;;;;;0.00;86.40;;;;;;4959919;28;19926;-63
2024/01/19 07:33:19;;;;;;;;;;;0.00;86.40;;;;;;4961123;28;19976;-63
2024/01/19 07:35:46;;;;;;;;;;;0.00;86.30;;;;;;4961037;28;19930;-61
2024/01/19 07:38:20;;;;;;;;;;;0.10;86.30;;;;;;4958689;28;19938;-61
2024/01/19 07:40:53;;;;;;;;;;;0.00;86.10;;;;;;4961214;28;19934;-62
2024/01/19 07:43:26;;;;;;;;;;;0.00;86.20;;;;;;4960039;28;19926;-62
2024/01/19 07:46:00;;;;;;;;;;;0.00;86.10;;;;;;4959263;28;20373;-60
2024/01/19 07:48:33;;;;;;;;;;;0.00;86.10;;;;;;4959670;28;19930;-60
2024/01/19 07:51:07;;;;;;;;;;;0.00;86.10;;;;;;4958538;28;19926;-61
2024/01/19 07:53:33;;;;;;;;;;;0.00;86.10;;;;;;4960222;28;19937;-62
2024/01/19 07:56:07;;;;;;;;;;;0.00;86.20;;;;;;4957823;28;19934;-62
2024/01/19 07:58:43;;;;;;;;;;;0.00;86.00;;;;;;4959801;28;19930;-62
2024/01/19 08:01:17;;;;;;;;;;;-3276.70;86.00;;;;;;4959877;28;19934;-63
2024/01/19 08:03:51;;;;;;;;;;;-3276.70;86.00;;;;;;4961231;28;20002;-62
2024/01/19 08:06:23;;;;;;;;;;;-3276.70;86.10;;;;;;4941168;28;19934;-62
2024/01/19 08:08:57;;;;;;;;;;;-3276.60;86.00;;;;;;4960210;28;21560;-61
2024/01/19 08:11:29;;;;;;;;;;;-3276.70;86.30;;;;;;4960365;28;20288;-63
2024/01/19 08:14:03;;;;;;;;;;;-3276.70;86.30;;;;;;4958857;28;20412;-62
2024/01/19 08:16:31;;;;;;;;;;;-3276.70;86.00;;;;;;4961481;28;19930;-63
2024/01/19 08:19:04;;;;;;;;;;;0.00;86.10;;;;;;4960603;28;19939;-60
2024/01/19 08:21:30;;;;;;;;;;;0.00;86.00;;;;;;4960722;28;19934;-61
2024/01/19 08:24:04;;;;;;;;;;;0.00;86.00;;;;;;4959038;28;19981;-63
2024/01/19 08:26:36;;;;;;;;;;;0.00;86.00;;;;;;4960749;28;19933;-64
2024/01/19 08:29:10;;;;;;;;;;;-3276.70;86.20;;;;;;4959825;28;20084;-61
2024/01/19 08:31:38;;;;;;;;;;;-3276.70;86.20;;;;;;4960382;28;20534;-60
2024/01/19 08:34:13;;;;;;;;;;;-3276.70;86.20;;;;;;4958702;28;19977;-60
2024/01/19 08:36:46;;;;;;;;;;;0.00;86.20;;;;;;4948961;28;20780;-59
2024/01/19 08:39:19;;;;;;;;;;;0.00;86.30;;;;;;4960152;28;19961;-60
2024/01/19 08:41:47;;;;;;;;;;;0.00;86.00;;;;;;4960785;28;20519;-59
2024/01/19 08:44:21;;;;;;;;;;;0.00;86.20;;;;;;4958674;28;20010;-60
2024/01/19 08:46:57;;;;;;;;;;;0.00;86.10;;;;;;4959001;28;19930;-60
2024/01/19 08:49:30;;;;;;;;;;;0.00;86.00;;;;;;4961149;28;19987;-59
2024/01/19 08:52:04;;;;;;;;;;;-3276.70;86.10;;;;;;4958347;28;19933;-59
2024/01/19 08:54:38;;;;;;;;;;;-3276.70;86.00;;;;;;4955994;28;19953;-60
2024/01/19 08:57:12;;;;;;;;;;;-3276.70;86.10;;;;;;4962362;28;19948;-59
2024/01/19 08:59:45;;;;;;;;;;;-3276.70;86.00;;;;;;4961943;28;19934;-60
2024/01/19 09:02:19;;;;;;;;;;;-3276.70;86.20;;;;;;4956399;28;19934;-60
2024/01/19 09:04:52;;;;;;;;;;;0.00;86.10;;;;;;4963728;28;20301;-58
2024/01/19 09:07:26;;;;;;;;;;;-3276.70;86.00;;;;;;4960373;28;20012;-59
2024/01/19 09:09:59;;;;;;;;;;;-3276.70;86.00;;;;;;4961069;28;19934;-59
2024/01/19 09:12:32;;;;;;;;;;;-3276.70;86.10;;;;;;4961414;28;19930;-58
2024/01/19 09:15:05;;;;;;;;;;;0.00;86.20;;;;;;4964631;28;19930;-59
2024/01/19 09:17:40;;;;;;;;;;;-3276.70;86.00;;;;;;4961637;28;20024;-60
2024/01/19 09:20:07;;;;;;;;;;;0.00;86.00;;;;;;4962167;28;19934;-59
2024/01/19 09:22:41;;;;;;;;;;;-3276.70;86.10;;;;;;4961488;28;19984;-60
2024/01/19 09:25:14;;;;;;;;;;;-3276.70;86.00;;;;;;4963138;28;20388;-59
2024/01/19 09:27:48;;;;;;;;;;;-3276.70;86.10;;;;;;4962750;28;20126;-59
2024/01/19 09:30:27;;;;;;;;;;;-3276.70;85.80;;;;;;4960090;28;19957;-59
2024/01/19 09:33:02;;;;;;;;;;;-3276.70;85.90;;;;;;4963284;28;19935;-60
2024/01/19 09:35:37;;;;;;;;;;;-3276.70;85.80;;;;;;4962485;28;19934;-59
2024/01/19 09:38:09;;;;;;;;;;;-3276.70;85.90;;;;;;4961882;28;20290;-58
2024/01/19 09:40:36;;;;;;;;;;;-3276.70;85.80;;;;;;4960560;28;20324;-60
2024/01/19 09:43:11;;;;;;;;;;;-3276.70;85.90;;;;;;4962079;28;19933;-59
2024/01/19 09:45:48;;;;;;;;;;;0.00;85.80;;;;;;4961800;28;19934;-60
2024/01/19 09:48:24;;;;;;;;;;;-3276.70;85.70;;;;;;4961050;28;19926;-59
2024/01/19 09:50:52;;;;;;;;;;;-3276.70;85.80;;;;;;4962756;28;19926;-59
2024/01/19 09:53:27;;;;;;;;;;;-3276.70;85.80;;;;;;4961354;28;19930;-60
2024/01/19 09:56:01;;;;;;;;;;;-3276.70;85.80;;;;;;4959556;28;20373;-62
2024/01/19 09:58:27;;;;;;;;;;;-3276.70;85.80;;;;;;4961870;28;20043;-60
2024/01/19 10:01:01;;;;;;;;;;;-3276.70;85.90;;;;;;4961530;28;20022;-63
2024/01/19 10:03:36;;;;;;;;;;;-3276.70;85.80;;;;;;4961296;28;19933;-59
2024/01/19 10:06:12;;;;;;;;;;;-3276.70;85.70;;;;;;4962237;28;19926;-59
2024/01/19 10:08:45;;;;;;;;;;;0.00;85.80;;;;;;4963119;28;19926;-59
2024/01/19 10:11:18;;;;;;;;;;;0.00;85.80;;;;;;4961188;28;19927;-59
2024/01/19 10:13:51;;;;;;;;;;;0.00;85.60;;;;;;4961713;28;19953;-58
2024/01/19 10:16:24;;;;;;;;;;;0.00;85.50;;;;;;4960803;28;19941;-60
2024/01/19 10:18:59;;;;;;;;;;;0.00;85.60;;;;;;4961620;28;19941;-60
2024/01/19 10:21:33;;;;;;;;;;;0.00;85.50;;;;;;4960177;28;19937;-60
2024/01/19 10:24:10;;;;;;;;;;;0.00;85.30;;;;;;4961825;28;19927;-59
2024/01/19 10:26:43;;;;;;;;;;;0.00;85.30;;;;;;4964603;28;19926;-60
2024/01/19 10:29:16;;;;;;;;;;;0.00;85.30;;;;;;4960901;28;19929;-60
2024/01/19 10:31:51;;;;;;;;;;;0.00;85.20;;;;;;4962806;28;20020;-58
2024/01/19 10:34:26;;;;;;;;;;;0.00;85.20;;;;;;4961398;28;19926;-60
2024/01/19 10:37:00;;;;;;;;;;;0.00;85.10;;;;;;4963328;28;19934;-60
2024/01/19 10:39:35;;;;;;;;;;;0.00;85.10;;;;;;4960917;28;19934;-58
2024/01/19 10:42:08;;;;;;;;;;;0.00;85.10;;;;;;4960453;28;19930;-60
2024/01/19 10:44:42;;;;;;;;;;;0.00;85.20;;;;;;4961034;28;20327;-59
2024/01/19 10:47:15;;;;;;;;;;;0.00;85.20;;;;;;4960520;28;19926;-60
2024/01/19 10:50:04;;;;;;;;;;;0.10;85.20;;;;;;4957751;28;19949;-59
2024/01/19 10:52:38;;;;;;;;;;;0.00;85.30;;;;;;4960795;28;19949;-60
2024/01/19 10:55:17;;;;;;;;;;;0.10;85.30;;;;;;4960612;28;19930;-59
2024/01/19 10:57:52;;;;;;;;;;;0.10;85.30;;;;;;4961770;28;19926;-63
2024/01/19 11:00:25;;;;;;;;;;;0.10;85.30;;;;;;4960746;28;20029;-62
2024/01/19 11:03:02;;;;;;;;;;;0.10;85.20;;;;;;4959177;28;20756;-61
2024/01/19 11:05:37;;;;;;;;;;;0.20;85.20;;;;;;4959756;28;19930;-63
2024/01/19 11:08:11;;;;;;;;;;;0.20;85.20;;;;;;4960459;28;19930;-63
2024/01/19 11:10:47;;;;;;;;;;;0.20;85.30;;;;;;4961476;28;19926;-63
2024/01/19 11:13:22;;;;;;;;;;;0.20;85.30;;;;;;4957445;28;19926;-61
2024/01/19 11:15:57;;;;;;;;;;;0.20;85.40;;;;;;4959765;28;19974;-61
2024/01/19 11:18:31;;;;;;;;;;;0.30;85.40;;;;;;4960758;28;19933;-63
2024/01/19 11:21:05;;;;;;;;;;;0.30;85.50;;;;;;4960969;28;19926;-63
2024/01/19 11:23:39;;;;;;;;;;;0.30;85.40;;;;;;4962118;28;19980;-63
2024/01/19 11:26:15;;;;;;;;;;;0.30;85.40;;;;;;4960856;28;19930;-61
2024/01/19 11:28:52;;;;;;;;;;;0.30;85.40;;;;;;4961936;28;19926;-61
2024/01/19 11:31:26;;;;;;;;;;;0.30;85.30;;;;;;4961098;28;19927;-62
2024/01/19 11:34:06;;;;;;;;;;;0.40;85.40;;;;;;4958467;28;19985;-63
2024/01/19 11:36:48;;;;;;;;;;;0.40;85.30;;;;;;4960724;28;19934;-61
2024/01/19 11:39:38;;;;;;;;;;;0.40;85.20;;;;;;4958773;28;19935;-62
2024/01/19 11:42:31;;;;;;;;;;;0.40;85.30;;;;;;4956918;28;19979;-62
2024/01/19 11:45:05;;;;;;;;;;;0.50;85.40;;;;;;4960802;28;19991;-62
2024/01/19 11:47:44;;;;;;;;;;;0.50;85.30;;;;;;4959344;28;19957;-59
2024/01/19 11:50:17;;;;;;;;;;;0.40;85.40;;;;;;4957863;28;19930;-62
2024/01/19 11:52:55;;;;;;;;;;;0.40;85.30;;;;;;4959174;28;19933;-62
2024/01/19 11:55:41;;;;;;;;;;;0.50;85.30;;;;;;4959553;28;19930;-63
2024/01/19 11:58:30;;;;;;;;;;;0.50;85.40;;;;;;4953472;28;21271;-61
2024/01/19 12:01:04;;;;;;;;;;;0.50;85.40;;;;;;4958496;28;19926;-62
2024/01/19 12:03:38;;;;;;;;;;;0.50;85.50;;;;;;4957103;28;20018;-62
2024/01/19 12:06:11;;;;;;;;;;;0.50;85.50;;;;;;4957926;28;19926;-62
2024/01/19 12:08:58;;;;;;;;;;;0.50;85.40;;;;;;4958240;28;19926;-79
2024/01/19 12:11:32;;;;;;;;;;;0.50;85.50;;;;;;4961856;28;19987;-78
2024/01/19 12:14:06;;;;;;;;;;;0.50;85.40;;;;;;4959302;28;19935;-76
2024/01/19 12:16:41;;;;;;;;;;;0.50;85.40;;;;;;4958624;28;19931;-78
2024/01/19 12:19:15;;;;;;;;;;;0.60;85.40;;;;;;4959744;28;19963;-75
2024/01/19 12:21:49;;;;;;;;;;;0.60;85.40;;;;;;4958908;28;19926;-78
2024/01/19 12:24:23;;;;;;;;;;;0.60;85.30;;;;;;4957309;28;19926;-78
2024/01/19 12:26:57;;;;;;;;;;;0.60;85.30;;;;;;4957601;28;19930;-79
2024/01/19 12:29:31;;;;;;;;;;;0.60;85.40;;;;;;4959791;28;19977;-77
2024/01/19 12:32:12;;;;;;;;;;;0.60;85.40;;;;;;4963066;28;19934;-76
2024/01/19 12:34:56;;;;;;;;;;;0.60;85.30;;;;;;4962548;28;20299;-79
2024/01/19 12:37:30;;;;;;;;;;;0.70;85.40;;;;;;4962552;28;19930;-77
2024/01/19 12:40:14;;;;;;;;;;;0.60;85.20;;;;;;4964036;28;19937;-75
2024/01/19 12:42:48;;;;;;;;;;;0.70;85.40;;;;;;4962892;28;19934;-79
2024/01/19 12:45:22;;;;;;;;;;;0.60;85.20;;;;;;4960350;28;20296;-77
2024/01/19 12:47:59;;;;;;;;;;;0.70;85.20;;;;;;4962098;28;20376;-75
2024/01/19 12:50:33;;;;;;;;;;;0.70;85.20;;;;;;4961710;28;19952;-77
2024/01/19 12:53:06;;;;;;;;;;;0.60;85.20;;;;;;4962563;28;19934;-74
2024/01/19 12:55:40;;;;;;;;;;;0.70;85.20;;;;;;4963545;28;20000;-79
2024/01/19 12:58:22;;;;;;;;;;;0.70;85.10;;;;;;4962533;28;20410;-79
2024/01/19 13:01:03;;;;;;;;;;;0.70;85.30;;;;;;4960119;28;19934;-79
2024/01/19 13:03:37;;;;;;;;;;;0.70;85.40;;;;;;4957136;28;19926;-78
2024/01/19 13:06:10;;;;;;;;;;;0.70;85.30;;;;;;4961965;28;19934;-77
2024/01/19 13:08:43;;;;;;;;;;;0.70;85.30;;;;;;4957342;28;20364;-77
2024/01/19 13:11:21;;;;;;;;;;;0.70;85.40;;;;;;4961277;28;20406;-77
2024/01/19 13:14:01;;;;;;;;;;;0.70;85.40;;;;;;4959733;28;19926;-78
2024/01/19 13:16:50;;;;;;;;;;;0.70;85.40;;;;;;4963767;28;19927;-79
2024/01/19 13:19:24;;;;;;;;;;;0.70;85.50;;;;;;4939740;28;20024;-71
2024/01/19 13:21:57;;;;;;;;;;;0.70;85.40;;;;;;4960483;28;19930;-71
2024/01/19 13:24:32;;;;;;;;;;;0.70;85.50;;;;;;4961694;28;19937;-70
2024/01/19 13:27:06;;;;;;;;;;;0.70;85.60;;;;;;4959903;28;19948;-71
2024/01/19 13:29:40;;;;;;;;;;;0.70;85.60;;;;;;4961006;28;19927;-71
2024/01/19 13:32:13;;;;;;;;;;;0.70;85.60;;;;;;4958756;28;19934;-72
2024/01/19 13:34:46;;;;;;;;;;;0.70;85.70;;;;;;4960264;28;19936;-71
2024/01/19 13:37:19;;;;;;;;;;;0.70;85.60;;;;;;4959787;28;19926;-71
2024/01/19 13:39:52;;;;;;;;;;;0.70;85.60;;;;;;4960982;28;19930;-72
2024/01/19 13:42:27;;;;;;;;;;;0.70;85.60;;;;;;4960420;28;19927;-73
2024/01/19 13:45:04;;;;;;;;;;;0.70;85.70;;;;;;4954017;28;20656;-71
2024/01/19 13:47:38;;;;;;;;;;;0.70;85.70;;;;;;4962802;28;19926;-72
2024/01/19 13:50:11;;;;;;;;;;;0.70;85.70;;;;;;4959951;28;19965;-70
2024/01/19 13:52:44;;;;;;;;;;;0.70;85.80;;;;;;4960044;28;19927;-72
2024/01/19 13:55:17;;;;;;;;;;;0.70;85.80;;;;;;4960226;28;19933;-72
2024/01/19 13:57:51;;;;;;;;;;;0.70;85.80;;;;;;4960469;28;19931;-71
2024/01/19 14:00:25;;;;;;;;;;;0.70;85.80;;;;;;4957504;28;19938;-73
2024/01/19 14:02:58;;;;;;;;;;;0.80;85.80;;;;;;4940900;28;19937;-70
2024/01/19 14:05:32;;;;;;;;;;;0.70;85.80;;;;;;4959838;28;19934;-71
2024/01/19 14:08:06;;;;;;;;;;;0.80;85.90;;;;;;4960638;28;19942;-72
2024/01/19 14:10:40;;;;;;;;;;;0.80;85.90;;;;;;4958321;28;19931;-70
2024/01/19 14:13:15;;;;;;;;;;;0.80;85.90;;;;;;4958980;28;19927;-72
2024/01/19 14:15:49;;;;;;;;;;;0.70;85.90;;;;;;4958821;28;20365;-70
2024/01/19 14:18:22;;;;;;;;;;;0.70;85.90;;;;;;4961373;28;19965;-71
2024/01/19 14:20:55;;;;;;;;;;;0.80;86.00;;;;;;4959784;28;19930;-71
2024/01/19 14:23:30;;;;;;;;;;;0.70;86.10;;;;;;4957313;28;20392;-71
2024/01/19 14:26:03;;;;;;;;;;;0.70;86.10;;;;;;4957863;28;19933;-71
2024/01/19 14:28:37;;;;;;;;;;;0.80;86.10;;;;;;4957166;28;20278;-64
2024/01/19 14:31:11;;;;;;;;;;;0.70;86.20;;;;;;4961095;28;19927;-64
2024/01/19 14:33:44;;;;;;;;;;;0.70;86.20;;;;;;4957992;28;20324;-63
2024/01/19 14:36:17;;;;;;;;;;;0.70;86.20;;;;;;4958130;28;20427;-62
2024/01/19 14:38:50;;;;;;;;;;;0.80;86.20;;;;;;4960702;28;20300;-63
2024/01/19 14:41:23;;;;;;;;;;;0.70;86.30;;;;;;4959765;28;19969;-62
2024/01/19 14:43:58;;;;;;;;;;;0.70;86.40;;;;;;4960910;28;19938;-63
2024/01/19 14:46:32;;;;;;;;;;;0.70;86.30;;;;;;4958025;28;20387;-63
2024/01/19 14:49:06;;;;;;;;;;;0.70;86.30;;;;;;4958816;28;19926;-63
2024/01/19 14:51:42;;;;;;;;;;;0.70;86.30;;;;;;4960226;28;19930;-62
2024/01/19 14:54:15;;;;;;;;;;;0.80;86.40;;;;;;4959362;28;20007;-62
2024/01/19 14:56:48;;;;;;;;;;;0.80;86.30;;;;;;4959342;28;19930;-66
2024/01/19 14:59:22;;;;;;;;;;;0.80;86.30;;;;;;4958280;28;19934;-63
2024/01/19 15:01:56;;;;;;;;;;;0.70;86.40;;;;;;4960969;28;19933;-63